createdAt,value
2023-03-12T00:01:01.441Z,0.20
2023-03-12T00:03:29.437Z,0.20
2023-03-12T00:05:59.118Z,0.30
2023-03-12T00:08:29.925Z,0.20
2023-03-12T00:10:59.223Z,0.00
2023-03-12T00:13:27.252Z,0.00
2023-03-12T00:15:55.253Z,-0.20
2023-03-12T00:18:23.322Z,0.00
2023-03-12T00:20:55.635Z,0.00
2023-03-12T00:23:23.604Z,0.10
2023-03-12T00:25:51.601Z,0.00
2023-03-12T00:28:21.014Z,0.10
2023-03-12T00:30:48.975Z,0.20
2023-03-12T00:33:16.933Z,0.10
2023-03-12T00:35:44.937Z,0.20
2023-03-12T00:38:12.964Z,0.10
2023-03-12T00:40:40.979Z,0.10
2023-03-12T00:43:09.002Z,0.20
2023-03-12T00:45:38.367Z,0.40
2023-03-12T00:48:07.036Z,0.30
2023-03-12T00:50:35.042Z,0.20
2023-03-12T00:53:03.064Z,0.30
2023-03-12T00:55:31.298Z,0.60
2023-03-12T00:57:59.273Z,0.40
2023-03-12T01:00:27.394Z,0.40
2023-03-12T01:02:56.845Z,0.30
2023-03-12T01:05:25.260Z,0.30
2023-03-12T01:07:53.289Z,0.30
2023-03-12T01:10:22.794Z,0.20
2023-03-12T01:12:50.823Z,0.10
2023-03-12T01:15:20.283Z,0.00
2023-03-12T01:17:48.306Z,0.00
2023-03-12T01:20:17.987Z,0.30
2023-03-12T01:22:46.004Z,0.20
2023-03-12T01:25:14.323Z,0.20
2023-03-12T01:27:42.295Z,0.20
2023-03-12T01:30:12.373Z,0.20
2023-03-12T01:32:40.466Z,0.00
2023-03-12T01:35:09.796Z,0.00
2023-03-12T01:37:39.298Z,0.00
2023-03-12T01:40:08.494Z,0.30
2023-03-12T01:42:36.437Z,0.20
2023-03-12T01:45:07.071Z,0.30
2023-03-12T01:47:35.044Z,0.30
2023-03-12T01:50:04.723Z,0.40
2023-03-12T01:52:38.781Z,0.40
2023-03-12T01:55:10.458Z,0.30
2023-03-12T01:57:42.878Z,0.30
2023-03-12T02:00:14.801Z,0.50
2023-03-12T02:02:44.959Z,0.50
2023-03-12T02:05:21.052Z,0.40
2023-03-12T02:07:50.573Z,0.40
2023-03-12T02:10:18.835Z,0.40
2023-03-12T02:12:46.874Z,0.40
2023-03-12T02:15:14.985Z,0.40
2023-03-12T02:17:43.015Z,0.50
2023-03-12T02:20:19.794Z,0.40
2023-03-12T02:23:02.144Z,0.30
2023-03-12T02:25:36.455Z,0.30
2023-03-12T02:28:08.675Z,0.40
2023-03-12T02:30:37.697Z,0.50
2023-03-12T02:33:09.495Z,0.50
2023-03-12T02:35:38.230Z,0.40
2023-03-12T02:38:39.332Z,0.50
2023-03-12T02:41:15.673Z,0.60
2023-03-12T02:43:47.618Z,0.60
2023-03-12T02:46:16.442Z,0.50
2023-03-12T02:48:44.740Z,0.60
2023-03-12T02:51:12.680Z,0.60
2023-03-12T02:53:41.151Z,0.60
2023-03-12T02:56:10.471Z,0.70
2023-03-12T02:58:38.523Z,0.70
2023-03-12T03:01:06.557Z,0.90
2023-03-12T03:03:34.531Z,0.80
2023-03-12T03:06:02.580Z,0.70
2023-03-12T03:08:30.575Z,0.80
2023-03-12T03:10:59.108Z,0.70
2023-03-12T03:13:28.393Z,0.60
2023-03-12T03:15:57.623Z,0.60
2023-03-12T03:18:25.980Z,0.70
2023-03-12T03:20:57.628Z,0.60
2023-03-12T03:23:25.945Z,0.60
2023-03-12T03:25:54.249Z,0.60
2023-03-12T03:28:24.318Z,0.70
2023-03-12T03:30:59.023Z,0.70
2023-03-12T03:33:28.007Z,0.70
2023-03-12T03:35:56.247Z,0.80
2023-03-12T03:38:24.375Z,0.80
2023-03-12T03:40:52.613Z,0.70
2023-03-12T03:43:21.081Z,0.80
2023-03-12T03:45:49.460Z,0.80
2023-03-12T03:48:18.851Z,0.70
2023-03-12T03:50:46.829Z,0.80
2023-03-12T03:53:15.202Z,0.80
2023-03-12T03:55:43.429Z,0.90
2023-03-12T03:58:11.539Z,0.80
2023-03-12T04:00:39.911Z,0.90
2023-03-12T04:03:08.036Z,0.90
2023-03-12T04:05:37.433Z,0.90
2023-03-12T04:08:06.490Z,0.90
2023-03-12T04:10:34.518Z,0.80
2023-03-12T04:13:02.522Z,0.90
2023-03-12T04:15:30.640Z,0.80
2023-03-12T04:17:58.714Z,0.80
2023-03-12T04:20:26.780Z,0.80
2023-03-12T04:22:56.078Z,0.80
2023-03-12T04:25:24.083Z,0.80
2023-03-12T04:27:52.086Z,0.70
2023-03-12T04:30:20.429Z,0.80
2023-03-12T04:32:48.466Z,0.80
2023-03-12T04:35:16.636Z,0.80
2023-03-12T04:37:44.665Z,0.80
2023-03-12T04:40:15.548Z,0.70
2023-03-12T04:42:43.657Z,0.80
2023-03-12T04:45:12.830Z,0.90
2023-03-12T04:47:40.862Z,0.90
2023-03-12T04:50:10.488Z,1.00
2023-03-12T04:52:38.809Z,1.00
2023-03-12T04:55:08.936Z,1.00
2023-03-12T04:57:38.303Z,1.00
2023-03-12T05:00:10.862Z,1.10
2023-03-12T05:02:39.121Z,1.10
2023-03-12T05:05:08.375Z,1.10
2023-03-12T05:07:36.383Z,1.10
2023-03-12T05:10:05.069Z,1.10
2023-03-12T05:12:33.088Z,1.10
2023-03-12T05:15:02.384Z,1.20
2023-03-12T05:17:30.451Z,1.20
2023-03-12T05:19:58.433Z,1.30
2023-03-12T05:22:26.570Z,1.30
2023-03-12T05:24:54.663Z,1.30
2023-03-12T05:27:22.814Z,1.30
2023-03-12T05:29:50.758Z,1.30
2023-03-12T05:32:20.132Z,1.30
2023-03-12T05:34:48.691Z,1.40
2023-03-12T05:37:16.932Z,1.50
2023-03-12T05:39:46.913Z,1.70
2023-03-12T05:42:15.488Z,1.60
2023-03-12T05:44:44.027Z,1.50
2023-03-12T05:47:12.127Z,1.40
2023-03-12T05:49:41.477Z,1.40
2023-03-12T05:52:09.581Z,1.40
2023-03-12T05:54:37.610Z,1.30
2023-03-12T05:57:05.925Z,1.40
2023-03-12T05:59:33.899Z,1.40
2023-03-12T06:02:02.002Z,1.30
2023-03-12T06:04:30.697Z,1.40
2023-03-12T06:07:00.020Z,1.40
2023-03-12T06:09:28.076Z,1.30
2023-03-12T06:11:56.024Z,1.20
2023-03-12T06:14:24.013Z,1.30
2023-03-12T06:16:52.145Z,1.20
2023-03-12T06:19:20.426Z,1.20
2023-03-12T06:21:48.544Z,1.20
2023-03-12T06:24:17.947Z,1.10
2023-03-12T06:26:45.917Z,1.30
2023-03-12T06:29:14.073Z,1.40
2023-03-12T06:31:42.159Z,1.40
2023-03-12T06:34:11.081Z,1.40
2023-03-12T06:36:39.189Z,1.40
2023-03-12T06:39:08.495Z,1.50
2023-03-12T06:41:38.071Z,1.50
2023-03-12T06:44:06.727Z,1.70
2023-03-12T06:46:35.125Z,1.70
2023-03-12T06:49:03.797Z,1.80
2023-03-12T06:51:31.776Z,1.90
2023-03-12T06:54:01.139Z,2.00
2023-03-12T06:56:29.527Z,2.30
2023-03-12T06:58:58.947Z,2.30
2023-03-12T07:01:27.068Z,2.10
2023-03-12T07:03:55.200Z,1.90
2023-03-12T07:06:24.856Z,1.70
2023-03-12T07:08:53.062Z,1.90
2023-03-12T07:11:21.105Z,2.30
2023-03-12T07:13:49.374Z,2.30
2023-03-12T07:16:18.876Z,2.10
2023-03-12T07:18:46.909Z,1.90
2023-03-12T07:21:16.592Z,1.70
2023-03-12T07:23:44.573Z,1.60
2023-03-12T07:26:12.662Z,1.50
2023-03-12T07:28:40.668Z,1.50
2023-03-12T07:31:08.835Z,1.40
2023-03-12T07:33:38.343Z,1.40
2023-03-12T07:36:07.845Z,1.40
2023-03-12T07:38:35.897Z,1.80
2023-03-12T07:41:04.079Z,1.60
2023-03-12T07:43:32.968Z,1.70
2023-03-12T07:46:01.094Z,1.60
2023-03-12T07:48:29.078Z,1.50
2023-03-12T07:50:58.412Z,1.40
2023-03-12T07:53:26.384Z,1.50
2023-03-12T07:55:55.900Z,1.40
2023-03-12T07:58:24.071Z,1.30
2023-03-12T08:00:53.720Z,1.30
2023-03-12T08:03:21.954Z,1.30
2023-03-12T08:06:00.103Z,1.30
2023-03-12T08:08:29.020Z,1.40
2023-03-12T08:10:57.183Z,1.40
2023-03-12T08:13:25.910Z,1.40
2023-03-12T08:15:55.056Z,1.50
2023-03-12T08:18:24.655Z,1.40
2023-03-12T08:20:53.801Z,1.40
2023-03-12T08:23:24.888Z,1.40
2023-03-12T08:25:53.425Z,1.50
2023-03-12T08:28:23.158Z,1.60
2023-03-12T08:30:53.748Z,1.80
2023-03-12T08:33:22.795Z,2.10
2023-03-12T08:35:51.877Z,2.10
2023-03-12T08:38:20.217Z,2.30
2023-03-12T08:40:57.321Z,2.40
2023-03-12T08:43:25.699Z,2.60
2023-03-12T08:45:57.402Z,2.80
2023-03-12T08:48:26.048Z,2.90
2023-03-12T08:50:57.169Z,3.00
2023-03-12T08:53:25.379Z,2.60
2023-03-12T08:55:56.164Z,2.30
2023-03-12T08:58:25.801Z,2.30
2023-03-12T09:00:55.952Z,2.40
2023-03-12T09:03:25.200Z,2.40
2023-03-12T09:06:04.950Z,2.20
2023-03-12T09:08:34.011Z,2.10
2023-03-12T09:11:03.907Z,2.30
2023-03-12T09:13:50.719Z,2.20
2023-03-12T09:16:20.134Z,2.40
2023-03-12T09:18:48.188Z,2.20
2023-03-12T09:21:16.168Z,2.30
2023-03-12T09:23:44.206Z,2.10
2023-03-12T09:26:14.907Z,2.20
2023-03-12T09:28:44.856Z,2.20
2023-03-12T09:31:13.624Z,2.50
2023-03-12T09:33:42.846Z,3.00
2023-03-12T09:36:12.307Z,3.20
2023-03-12T09:38:40.541Z,3.30
2023-03-12T09:41:22.167Z,3.00
2023-03-12T09:43:55.685Z,3.00
2023-03-12T09:46:29.206Z,3.10
2023-03-12T09:48:59.860Z,3.10
2023-03-12T09:51:35.379Z,3.10
2023-03-12T09:54:07.519Z,3.10
2023-03-12T09:56:36.869Z,3.40
2023-03-12T09:59:04.986Z,3.30
2023-03-12T10:01:43.292Z,3.40
2023-03-12T10:04:30.565Z,3.60
2023-03-12T10:07:05.292Z,3.50
2023-03-12T10:09:49.902Z,3.70
2023-03-12T10:12:31.748Z,3.90
2023-03-12T10:15:17.929Z,3.70
2023-03-12T10:18:01.749Z,3.90
2023-03-12T10:21:14.194Z,3.40
2023-03-12T10:24:17.791Z,3.40
2023-03-12T10:26:51.172Z,3.30
2023-03-12T10:29:24.115Z,3.50
2023-03-12T10:31:57.317Z,3.80
2023-03-12T10:34:34.337Z,3.80
2023-03-12T10:37:14.245Z,3.90
2023-03-12T10:39:42.287Z,3.70
2023-03-12T10:42:17.767Z,3.50
2023-03-12T10:44:52.376Z,3.50
2023-03-12T10:47:35.226Z,3.50
2023-03-12T10:50:20.420Z,3.30
2023-03-12T10:52:50.693Z,3.40
2023-03-12T10:55:29.335Z,3.70
2023-03-12T10:57:58.402Z,3.90
2023-03-12T11:00:30.246Z,4.20
2023-03-12T11:03:03.824Z,4.20
2023-03-12T11:05:35.046Z,4.10
2023-03-12T11:08:05.622Z,4.00
2023-03-12T11:10:44.367Z,4.30
2023-03-12T11:13:29.498Z,4.30
2023-03-12T11:16:00.016Z,4.60
2023-03-12T11:18:34.354Z,4.80
2023-03-12T11:21:20.003Z,4.80
2023-03-12T11:24:11.289Z,4.80
2023-03-12T11:26:49.443Z,5.00
2023-03-12T11:29:26.817Z,4.90
2023-03-12T11:32:07.583Z,4.80
2023-03-12T11:34:38.877Z,4.90
2023-03-12T11:37:14.009Z,4.90
2023-03-12T11:40:19.846Z,4.80
2023-03-12T11:43:03.373Z,4.90
2023-03-12T11:45:46.302Z,4.70
2023-03-12T11:48:26.177Z,4.70
2023-03-12T11:51:13.510Z,4.80
2023-03-12T11:54:40.639Z,4.60
2023-03-12T11:57:20.876Z,4.70
2023-03-12T12:00:04.797Z,4.90
2023-03-12T12:03:11.211Z,4.80
2023-03-12T12:05:50.435Z,5.00
2023-03-12T12:08:47.654Z,5.10
2023-03-12T12:11:25.212Z,5.20
2023-03-12T12:14:13.420Z,5.30
2023-03-12T12:17:09.472Z,5.30
2023-03-12T12:20:08.981Z,5.40
2023-03-12T12:22:55.149Z,5.60
2023-03-12T12:25:30.216Z,5.60
2023-03-12T12:28:21.187Z,5.70
2023-03-12T12:31:02.272Z,5.60
2023-03-12T12:33:49.423Z,5.90
2023-03-12T12:36:18.824Z,5.80
2023-03-12T12:38:54.105Z,5.80
2023-03-12T12:41:26.392Z,5.70
2023-03-12T12:43:58.574Z,5.70
2023-03-12T12:46:31.607Z,5.70
2023-03-12T12:49:05.052Z,6.00
2023-03-12T12:51:37.908Z,6.10
2023-03-12T12:54:14.029Z,6.10
2023-03-12T12:56:48.356Z,6.20
2023-03-12T12:59:31.713Z,6.20
2023-03-12T13:02:02.283Z,6.20
2023-03-12T13:04:35.463Z,6.30
2023-03-12T13:07:34.878Z,6.30
2023-03-12T13:10:08.969Z,6.40
2023-03-12T13:12:57.295Z,6.70
2023-03-12T13:15:40.062Z,6.90
2023-03-12T13:18:24.355Z,6.90
2023-03-12T13:21:20.976Z,6.90
2023-03-12T13:24:04.113Z,6.90
2023-03-12T13:26:50.393Z,6.90
2023-03-12T13:29:37.439Z,6.80
2023-03-12T13:32:09.024Z,6.70
2023-03-12T13:34:48.002Z,6.70
2023-03-12T13:37:29.170Z,6.70
2023-03-12T13:40:07.135Z,6.70
2023-03-12T13:42:42.852Z,6.80
2023-03-12T13:45:31.600Z,6.80
2023-03-12T13:48:04.991Z,6.80
2023-03-12T13:50:34.889Z,6.80
2023-03-12T13:53:08.103Z,6.90
2023-03-12T13:55:39.336Z,7.10
2023-03-12T13:58:10.992Z,7.10
2023-03-12T14:00:42.491Z,7.20
2023-03-12T14:03:17.698Z,7.20
2023-03-12T14:05:52.914Z,7.30
2023-03-12T14:08:43.937Z,7.30
2023-03-12T14:11:38.039Z,7.30
2023-03-12T14:14:50.695Z,7.30
2023-03-12T14:17:21.183Z,7.40
2023-03-12T14:19:53.958Z,7.60
2023-03-12T14:22:23.904Z,7.70
2023-03-12T14:24:55.883Z,7.60
2023-03-12T14:27:30.576Z,7.60
2023-03-12T14:30:03.211Z,7.50
2023-03-12T14:32:33.396Z,7.70
2023-03-12T14:35:17.691Z,7.70
2023-03-12T14:37:51.419Z,7.50
2023-03-12T14:40:26.697Z,7.40
2023-03-12T14:43:00.591Z,7.40
2023-03-12T14:45:29.984Z,7.40
2023-03-12T14:47:59.582Z,7.50
2023-03-12T14:50:30.448Z,7.50
2023-03-12T14:53:15.346Z,7.70
2023-03-12T14:55:43.316Z,7.90
2023-03-12T14:58:20.835Z,8.10
2023-03-12T15:00:58.580Z,8.00
2023-03-12T15:03:27.898Z,8.10
2023-03-12T15:05:57.384Z,8.10
2023-03-12T15:08:26.942Z,8.30
2023-03-12T15:10:58.253Z,8.30
2023-03-12T15:13:28.925Z,8.50
2023-03-12T15:15:57.512Z,8.50
2023-03-12T15:18:28.857Z,8.50
2023-03-12T15:20:59.091Z,8.70
2023-03-12T15:23:30.999Z,8.60
2023-03-12T15:26:14.384Z,8.80
2023-03-12T15:28:45.084Z,8.80
2023-03-12T15:31:16.052Z,9.00
2023-03-12T15:33:45.685Z,9.10
2023-03-12T15:36:27.420Z,9.40
2023-03-12T15:39:00.112Z,9.50
2023-03-12T15:41:37.281Z,9.50
2023-03-12T15:44:06.929Z,9.30
2023-03-12T15:46:35.029Z,9.40
2023-03-12T15:49:04.140Z,9.20
2023-03-12T15:51:35.652Z,9.30
2023-03-12T15:54:07.267Z,9.30
2023-03-12T15:56:36.708Z,9.10
2023-03-12T15:59:21.902Z,9.00
2023-03-12T16:01:52.792Z,9.20
2023-03-12T16:04:22.081Z,9.40
2023-03-12T16:06:51.744Z,9.10
2023-03-12T16:09:24.468Z,8.90
2023-03-12T16:11:53.447Z,8.90
2023-03-12T16:14:26.790Z,9.10
2023-03-12T16:16:55.150Z,9.00
2023-03-12T16:19:24.895Z,9.00
2023-03-12T16:21:55.246Z,9.00
2023-03-12T16:24:23.273Z,8.80
2023-03-12T16:26:55.309Z,8.60
2023-03-12T16:29:35.279Z,8.60
2023-03-12T16:32:11.587Z,8.70
2023-03-12T16:34:39.776Z,8.60
2023-03-12T16:37:10.380Z,8.70
2023-03-12T16:39:38.428Z,8.70
2023-03-12T16:42:15.362Z,8.70
2023-03-12T16:44:46.652Z,8.70
2023-03-12T16:47:15.375Z,8.70
2023-03-12T16:49:45.198Z,8.70
2023-03-12T16:52:19.824Z,8.60
2023-03-12T16:54:50.043Z,8.70
2023-03-12T16:57:35.361Z,8.70
2023-03-12T17:00:12.604Z,8.70
2023-03-12T17:02:40.656Z,8.70
2023-03-12T17:05:09.861Z,8.50
2023-03-12T17:07:41.680Z,8.50
2023-03-12T17:10:16.896Z,8.60
2023-03-12T17:12:48.268Z,8.60
2023-03-12T17:15:22.677Z,8.60
2023-03-12T17:17:51.418Z,8.70
2023-03-12T17:20:22.467Z,8.80
2023-03-12T17:22:50.640Z,8.80
2023-03-12T17:25:25.874Z,8.80
2023-03-12T17:27:56.377Z,8.60
2023-03-12T17:30:27.610Z,8.60
2023-03-12T17:33:02.368Z,8.70
2023-03-12T17:35:30.598Z,8.60
2023-03-12T17:37:59.088Z,8.40
2023-03-12T17:40:27.718Z,8.20
2023-03-12T17:42:56.236Z,8.30
2023-03-12T17:45:26.830Z,8.30
2023-03-12T17:47:54.839Z,8.40
2023-03-12T17:50:22.897Z,8.30
2023-03-12T17:52:50.924Z,8.30
2023-03-12T17:55:19.118Z,8.40
2023-03-12T17:57:47.120Z,8.50
2023-03-12T18:00:17.264Z,8.50
2023-03-12T18:02:46.678Z,8.50
2023-03-12T18:05:14.762Z,8.60
2023-03-12T18:07:42.825Z,8.60
2023-03-12T18:10:13.313Z,8.50
2023-03-12T18:12:41.749Z,8.50
2023-03-12T18:15:13.173Z,8.50
2023-03-12T18:17:41.870Z,8.50
2023-03-12T18:20:16.612Z,8.50
2023-03-12T18:22:47.640Z,8.50
2023-03-12T18:25:15.877Z,8.50
2023-03-12T18:27:43.954Z,8.50
2023-03-12T18:30:13.587Z,8.20
2023-03-12T18:32:42.129Z,8.30
2023-03-12T18:35:11.710Z,8.40
2023-03-12T18:37:39.752Z,8.40
2023-03-12T18:40:10.113Z,8.20
2023-03-12T18:42:38.171Z,8.20
2023-03-12T18:45:07.994Z,8.20
2023-03-12T18:47:39.373Z,8.20
2023-03-12T18:50:09.413Z,8.20
2023-03-12T18:52:39.017Z,8.30
2023-03-12T18:55:07.612Z,8.30
2023-03-12T18:57:35.657Z,8.20
2023-03-12T19:00:06.182Z,8.20
2023-03-12T19:02:34.223Z,8.30
2023-03-12T19:05:03.949Z,8.30
2023-03-12T19:07:32.051Z,8.20
2023-03-12T19:10:01.452Z,8.30
2023-03-12T19:12:31.500Z,8.20
2023-03-12T19:15:00.959Z,8.20
2023-03-12T19:17:30.712Z,8.30
2023-03-12T19:19:58.825Z,8.20
2023-03-12T19:22:28.206Z,8.20
2023-03-12T19:24:56.561Z,8.20
2023-03-12T19:27:27.230Z,8.30
2023-03-12T19:29:56.122Z,8.30
2023-03-12T19:32:27.783Z,8.20
2023-03-12T19:35:01.408Z,8.30
2023-03-12T19:37:29.395Z,8.40
2023-03-12T19:39:57.431Z,8.40
2023-03-12T19:42:26.784Z,8.40
2023-03-12T19:44:55.030Z,8.40
2023-03-12T19:47:23.260Z,8.20
2023-03-12T19:49:51.492Z,8.30
2023-03-12T19:52:20.138Z,8.30
2023-03-12T19:55:01.597Z,8.40
2023-03-12T19:57:33.321Z,8.40
2023-03-12T20:00:01.490Z,8.40
2023-03-12T20:02:29.818Z,8.50
2023-03-12T20:04:58.018Z,8.60
2023-03-12T20:07:26.064Z,8.50
2023-03-12T20:09:54.166Z,8.50
2023-03-12T20:12:22.233Z,8.50
2023-03-12T20:14:51.666Z,8.60
2023-03-12T20:17:19.695Z,8.50
2023-03-12T20:19:47.712Z,8.50
2023-03-12T20:22:15.944Z,8.60
2023-03-12T20:24:44.049Z,8.50
2023-03-12T20:27:12.070Z,8.40
2023-03-12T20:29:40.227Z,8.40
2023-03-12T20:32:09.825Z,8.30
2023-03-12T20:34:38.207Z,8.20
2023-03-12T20:37:06.314Z,8.30
2023-03-12T20:39:34.348Z,8.40
2023-03-12T20:42:02.381Z,8.20
2023-03-12T20:44:30.406Z,8.30
2023-03-12T20:46:58.507Z,8.30
2023-03-12T20:49:27.966Z,8.30
2023-03-12T20:51:56.099Z,8.40
2023-03-12T20:54:24.505Z,8.20
2023-03-12T20:56:52.549Z,8.30
2023-03-12T20:59:20.668Z,8.10
2023-03-12T21:01:48.716Z,8.20
2023-03-12T21:04:16.779Z,8.10
2023-03-12T21:06:53.429Z,7.90
2023-03-12T21:09:28.223Z,7.90
2023-03-12T21:11:56.463Z,7.80
2023-03-12T21:14:24.531Z,7.90
2023-03-12T21:16:52.587Z,7.90
2023-03-12T21:19:20.920Z,7.80
2023-03-12T21:21:50.281Z,7.90
2023-03-12T21:24:18.303Z,7.80
2023-03-12T21:26:46.296Z,7.70
2023-03-12T21:29:14.482Z,7.20
2023-03-12T21:31:42.516Z,7.10
2023-03-12T21:34:10.613Z,7.40
2023-03-12T21:36:38.682Z,7.30
2023-03-12T21:39:08.537Z,7.20
2023-03-12T21:41:37.450Z,7.20
2023-03-12T21:44:05.854Z,7.20
2023-03-12T21:46:35.555Z,7.00
2023-03-12T21:49:03.604Z,7.00
2023-03-12T21:51:31.797Z,6.90
2023-03-12T21:54:00.555Z,6.80
2023-03-12T21:56:30.325Z,6.80
2023-03-12T21:58:59.037Z,6.80
2023-03-12T22:01:27.631Z,7.00
2023-03-12T22:03:55.974Z,6.90
2023-03-12T22:06:24.316Z,6.90
2023-03-12T22:08:52.464Z,6.90
2023-03-12T22:11:20.695Z,6.80
2023-03-12T22:13:50.190Z,6.70
2023-03-12T22:16:18.291Z,6.70
2023-03-12T22:18:47.636Z,6.60
2023-03-12T22:21:18.056Z,6.60
2023-03-12T22:23:47.795Z,6.60
2023-03-12T22:26:16.451Z,6.70
2023-03-12T22:28:51.256Z,6.80
2023-03-12T22:31:20.916Z,6.80
2023-03-12T22:33:49.746Z,6.90
2023-03-12T22:36:19.515Z,6.90
2023-03-12T22:38:48.547Z,7.00
2023-03-12T22:41:19.043Z,7.00
2023-03-12T22:43:47.997Z,7.00
2023-03-12T22:46:19.180Z,6.90
2023-03-12T22:48:49.290Z,6.80
2023-03-12T22:51:20.366Z,6.90
2023-03-12T22:53:48.607Z,7.00
2023-03-12T22:56:16.649Z,6.90
2023-03-12T22:58:44.897Z,7.00
2023-03-12T23:01:15.952Z,7.10
2023-03-12T23:03:46.679Z,7.10
2023-03-12T23:06:17.326Z,7.20
2023-03-12T23:08:47.721Z,7.30
2023-03-12T23:11:16.815Z,7.20
2023-03-12T23:13:46.723Z,7.20
2023-03-12T23:16:18.036Z,7.30
2023-03-12T23:18:48.196Z,7.20
2023-03-12T23:21:19.434Z,7.20
2023-03-12T23:23:48.528Z,7.10
2023-03-12T23:26:21.687Z,6.90
2023-03-12T23:28:53.100Z,7.00
2023-03-12T23:31:22.013Z,6.90
2023-03-12T23:33:51.717Z,7.00
2023-03-12T23:36:22.888Z,7.00
2023-03-12T23:38:51.645Z,7.10
2023-03-12T23:41:22.381Z,7.10
2023-03-12T23:43:51.088Z,7.20
2023-03-12T23:46:20.221Z,7.30
2023-03-12T23:48:48.830Z,7.40
2023-03-12T23:51:20.610Z,7.60
2023-03-12T23:53:51.489Z,7.60
2023-03-12T23:56:22.132Z,7.60
2023-03-12T23:58:51.785Z,7.60
